createdAt,value
2023-03-28T00:01:23.081Z,0.70
2023-03-28T00:03:52.657Z,1.60
2023-03-28T00:06:21.986Z,0.63
2023-03-28T00:08:51.211Z,0.80
2023-03-28T00:11:20.979Z,1.33
2023-03-28T00:13:49.817Z,1.10
2023-03-28T00:16:17.816Z,1.20
2023-03-28T00:18:47.541Z,0.87
2023-03-28T00:21:24.526Z,1.03
2023-03-28T00:23:53.562Z,1.13
2023-03-28T00:26:22.172Z,0.80
2023-03-28T00:28:50.187Z,1.07
2023-03-28T00:31:18.172Z,0.87
2023-03-28T00:33:48.187Z,1.13
2023-03-28T00:36:18.526Z,1.10
2023-03-28T00:38:46.605Z,0.87
2023-03-28T00:41:16.158Z,1.03
2023-03-28T00:43:45.911Z,1.30
2023-03-28T00:46:21.188Z,0.80
2023-03-28T00:48:53.977Z,1.20
2023-03-28T00:51:25.040Z,0.90
2023-03-28T00:53:53.741Z,0.90
2023-03-28T00:56:24.451Z,0.60
2023-03-28T00:58:52.884Z,1.03
2023-03-28T01:01:21.743Z,1.10
2023-03-28T01:03:56.274Z,0.87
2023-03-28T01:06:25.839Z,1.00
2023-03-28T01:08:53.800Z,0.80
2023-03-28T01:11:22.247Z,0.80
2023-03-28T01:13:51.841Z,0.57
2023-03-28T01:16:21.457Z,0.90
2023-03-28T01:18:52.595Z,0.37
2023-03-28T01:21:48.621Z,0.60
2023-03-28T01:24:41.705Z,1.00
2023-03-28T01:27:11.971Z,0.73
2023-03-28T01:30:02.611Z,0.80
2023-03-28T01:33:06.298Z,0.80
2023-03-28T01:36:34.504Z,0.77
2023-03-28T01:39:09.413Z,1.27
2023-03-28T01:41:42.884Z,0.90
2023-03-28T01:44:15.710Z,0.50
2023-03-28T01:46:47.191Z,1.00
2023-03-28T01:49:21.065Z,0.70
2023-03-28T01:51:55.536Z,0.60
2023-03-28T01:54:31.168Z,0.80
2023-03-28T01:57:04.862Z,1.00
2023-03-28T01:59:37.089Z,0.93
2023-03-28T02:02:08.856Z,0.80
2023-03-28T02:04:38.351Z,0.70
2023-03-28T02:07:08.932Z,0.77
2023-03-28T02:09:39.267Z,0.73
2023-03-28T02:12:11.545Z,0.80
2023-03-28T02:14:42.473Z,0.63
2023-03-28T02:17:16.305Z,0.57
2023-03-28T02:19:48.197Z,0.70
2023-03-28T02:22:20.940Z,1.17
2023-03-28T02:24:52.093Z,0.77
2023-03-28T02:27:22.673Z,0.70
2023-03-28T02:29:51.308Z,0.70
2023-03-28T02:32:21.746Z,0.77
2023-03-28T02:34:51.553Z,0.40
2023-03-28T02:37:29.354Z,0.67
2023-03-28T02:40:23.038Z,0.90
2023-03-28T02:43:16.104Z,0.93
2023-03-28T02:46:19.363Z,0.70
2023-03-28T02:48:57.271Z,0.50
2023-03-28T02:51:34.671Z,0.70
2023-03-28T02:54:14.990Z,0.60
2023-03-28T02:56:51.212Z,0.80
2023-03-28T02:59:24.506Z,0.80
2023-03-28T03:01:52.898Z,0.50
2023-03-28T03:04:20.928Z,0.90
2023-03-28T03:06:50.946Z,0.47
2023-03-28T03:09:19.544Z,0.70
2023-03-28T03:11:48.832Z,0.80
2023-03-28T03:14:16.756Z,0.60
2023-03-28T03:16:44.667Z,0.87
2023-03-28T03:19:12.598Z,0.80
2023-03-28T03:21:41.393Z,0.70
2023-03-28T03:24:10.583Z,0.80
2023-03-28T03:26:38.496Z,0.67
2023-03-28T03:29:07.851Z,0.87
2023-03-28T03:31:35.823Z,0.70
2023-03-28T03:34:03.932Z,0.70
2023-03-28T03:36:31.827Z,0.60
2023-03-28T03:38:59.853Z,0.93
2023-03-28T03:41:27.847Z,0.77
2023-03-28T03:43:55.924Z,0.93
2023-03-28T03:46:25.595Z,0.80
2023-03-28T03:48:53.614Z,0.77
2023-03-28T03:51:21.553Z,1.10
2023-03-28T03:53:50.631Z,0.60
2023-03-28T03:56:18.610Z,1.00
2023-03-28T03:58:46.599Z,0.90
2023-03-28T04:01:15.057Z,0.77
2023-03-28T04:03:44.502Z,0.80
2023-03-28T04:06:12.489Z,0.53
2023-03-28T04:08:40.415Z,0.67
2023-03-28T04:11:10.633Z,5.13
2023-03-28T04:13:38.836Z,1.33
2023-03-28T04:16:07.728Z,1.10
2023-03-28T04:18:35.748Z,1.60
2023-03-28T04:21:05.327Z,2.20
2023-03-28T04:23:35.262Z,1.73
2023-03-28T04:26:03.649Z,1.43
2023-03-28T04:28:31.564Z,1.40
2023-03-28T04:30:59.707Z,1.17
2023-03-28T04:33:29.255Z,1.13
2023-03-28T04:36:00.679Z,1.20
2023-03-28T04:38:31.779Z,0.90
2023-03-28T04:41:00.886Z,0.93
2023-03-28T04:43:29.308Z,1.17
2023-03-28T04:45:58.291Z,1.03
2023-03-28T04:48:27.752Z,1.00
2023-03-28T04:50:56.289Z,1.13
2023-03-28T04:53:24.237Z,1.00
2023-03-28T04:55:54.104Z,1.10
2023-03-28T04:58:23.102Z,1.40
2023-03-28T05:00:51.090Z,1.00
2023-03-28T05:03:20.641Z,1.03
2023-03-28T05:05:49.700Z,1.40
2023-03-28T05:08:18.261Z,0.80
2023-03-28T05:10:46.646Z,0.90
2023-03-28T05:13:16.786Z,1.03
2023-03-28T05:15:45.068Z,0.97
2023-03-28T05:18:12.995Z,1.03
2023-03-28T05:20:40.919Z,0.90
2023-03-28T05:23:09.020Z,0.90
2023-03-28T05:25:37.454Z,1.00
2023-03-28T05:28:06.096Z,1.00
2023-03-28T05:30:35.521Z,1.17
2023-03-28T05:33:04.148Z,0.80
2023-03-28T05:35:32.124Z,1.03
2023-03-28T05:38:00.043Z,1.43
2023-03-28T05:40:27.974Z,1.20
2023-03-28T05:42:56.048Z,1.00
2023-03-28T05:45:24.026Z,1.00
2023-03-28T05:47:54.580Z,0.80
2023-03-28T05:50:22.643Z,0.80
2023-03-28T05:52:50.657Z,1.10
2023-03-28T05:55:18.731Z,1.67
2023-03-28T05:57:46.645Z,1.63
2023-03-28T06:00:15.684Z,1.07
2023-03-28T06:02:44.267Z,8.77
2023-03-28T06:05:14.096Z,7.10
2023-03-28T06:07:43.206Z,10.77
2023-03-28T06:10:12.727Z,3.10
2023-03-28T06:12:41.160Z,3.43
2023-03-28T06:15:09.752Z,4.63
2023-03-28T06:17:37.757Z,3.03
2023-03-28T06:20:07.235Z,1.87
2023-03-28T06:22:36.994Z,2.37
2023-03-28T06:25:05.811Z,2.10
2023-03-28T06:27:34.064Z,2.40
2023-03-28T06:30:02.028Z,2.10
2023-03-28T06:32:29.988Z,2.20
2023-03-28T06:34:57.901Z,1.60
2023-03-28T06:37:26.112Z,2.20
2023-03-28T06:39:55.448Z,2.40
2023-03-28T06:42:23.362Z,2.50
2023-03-28T06:44:51.246Z,2.50
2023-03-28T06:47:19.105Z,2.53
2023-03-28T06:49:47.085Z,2.53
2023-03-28T06:52:14.976Z,2.17
2023-03-28T06:54:42.874Z,1.87
2023-03-28T06:57:12.262Z,1.90
2023-03-28T06:59:40.225Z,1.30
2023-03-28T07:02:08.193Z,1.67
2023-03-28T07:04:36.431Z,1.90
2023-03-28T07:07:04.381Z,2.00
2023-03-28T07:09:32.430Z,1.33
2023-03-28T07:12:00.543Z,2.07
2023-03-28T07:14:29.893Z,1.90
2023-03-28T07:16:57.825Z,1.77
2023-03-28T07:19:25.920Z,1.80
2023-03-28T07:21:54.077Z,1.87
2023-03-28T07:24:21.997Z,1.63
2023-03-28T07:26:49.946Z,1.80
2023-03-28T07:29:17.862Z,1.70
2023-03-28T07:31:47.351Z,1.53
2023-03-28T07:34:18.585Z,1.30
2023-03-28T07:36:46.524Z,1.33
2023-03-28T07:39:14.417Z,1.20
2023-03-28T07:41:42.327Z,1.43
2023-03-28T07:44:10.441Z,3.63
2023-03-28T07:46:38.583Z,1.70
2023-03-28T07:49:08.592Z,1.50
2023-03-28T07:51:36.545Z,1.97
2023-03-28T07:54:05.076Z,1.67
2023-03-28T07:56:33.019Z,1.20
2023-03-28T07:59:01.957Z,1.20
2023-03-28T08:01:29.887Z,1.77
2023-03-28T08:03:57.903Z,1.73
2023-03-28T08:06:32.470Z,1.33
2023-03-28T08:09:00.804Z,1.50
2023-03-28T08:11:28.707Z,1.33
2023-03-28T08:13:56.668Z,1.30
2023-03-28T08:16:24.790Z,1.43
2023-03-28T08:19:03.977Z,1.23
2023-03-28T08:21:40.651Z,1.47
2023-03-28T08:24:12.053Z,1.63
2023-03-28T08:26:43.686Z,1.70
2023-03-28T08:29:12.636Z,1.37
2023-03-28T08:31:40.760Z,1.43
2023-03-28T08:34:08.729Z,1.30
2023-03-28T08:36:36.993Z,1.20
2023-03-28T08:39:06.401Z,1.00
2023-03-28T08:42:06.205Z,1.03
2023-03-28T08:44:52.792Z,0.70
2023-03-28T08:47:23.964Z,1.50
2023-03-28T08:49:55.816Z,1.40
2023-03-28T08:52:24.030Z,0.90
2023-03-28T08:54:58.020Z,1.40
2023-03-28T08:57:28.595Z,1.47
2023-03-28T09:00:02.373Z,1.83
2023-03-28T09:02:31.230Z,1.50
2023-03-28T09:05:12.137Z,1.30
2023-03-28T09:07:54.810Z,1.30
2023-03-28T09:10:28.131Z,1.33
2023-03-28T09:13:14.375Z,1.13
2023-03-28T09:15:49.660Z,1.00
2023-03-28T09:18:26.568Z,1.40
2023-03-28T09:20:59.780Z,1.20
2023-03-28T09:24:05.546Z,1.20
2023-03-28T09:26:36.625Z,1.20
2023-03-28T09:29:07.009Z,0.90
2023-03-28T09:31:38.654Z,0.90
2023-03-28T09:34:07.389Z,1.40
2023-03-28T09:36:48.268Z,0.70
2023-03-28T09:39:21.944Z,0.80
2023-03-28T09:41:55.271Z,1.07
2023-03-28T09:44:27.560Z,0.90
2023-03-28T09:46:57.525Z,1.13
2023-03-28T09:49:26.719Z,1.10
2023-03-28T09:51:58.129Z,1.27
2023-03-28T09:54:30.642Z,1.00
2023-03-28T09:57:02.619Z,0.87
2023-03-28T09:59:31.892Z,1.00
2023-03-28T10:02:02.590Z,1.23
2023-03-28T10:04:36.456Z,1.13
2023-03-28T10:07:33.469Z,1.00
2023-03-28T10:10:12.141Z,1.20
2023-03-28T10:12:43.857Z,1.47
2023-03-28T10:15:33.647Z,1.30
2023-03-28T10:18:03.328Z,1.57
2023-03-28T10:20:35.833Z,1.77
2023-03-28T10:23:04.860Z,1.30
2023-03-28T10:25:38.007Z,1.10
2023-03-28T10:28:08.829Z,1.00
2023-03-28T10:30:37.827Z,0.90
2023-03-28T10:33:16.235Z,1.33
2023-03-28T10:35:45.841Z,0.80
2023-03-28T10:38:16.511Z,1.10
2023-03-28T10:40:44.870Z,1.30
2023-03-28T10:43:15.756Z,0.90
2023-03-28T10:45:45.056Z,0.80
2023-03-28T10:48:14.735Z,0.60
2023-03-28T10:50:45.982Z,0.87
2023-03-28T10:53:38.655Z,0.90
2023-03-28T10:56:15.160Z,0.63
2023-03-28T10:58:50.786Z,0.60
2023-03-28T11:01:21.240Z,0.73
2023-03-28T11:04:05.351Z,1.03
2023-03-28T11:06:37.401Z,0.90
2023-03-28T11:09:10.851Z,0.97
2023-03-28T11:11:48.465Z,0.87
2023-03-28T11:14:28.286Z,1.00
2023-03-28T11:17:02.615Z,1.00
2023-03-28T11:19:47.060Z,1.00
2023-03-28T11:22:24.069Z,0.70
2023-03-28T11:24:56.815Z,1.00
2023-03-28T11:27:30.099Z,0.60
2023-03-28T11:30:03.097Z,1.00
2023-03-28T11:32:33.216Z,1.17
2023-03-28T11:35:08.224Z,1.43
2023-03-28T11:37:39.443Z,0.70
2023-03-28T11:40:16.354Z,0.97
2023-03-28T11:42:48.222Z,0.80
2023-03-28T11:45:37.501Z,0.77
2023-03-28T11:48:12.785Z,1.03
2023-03-28T11:50:50.211Z,0.80
2023-03-28T11:53:24.354Z,1.00
2023-03-28T11:55:54.920Z,0.90
2023-03-28T11:58:24.890Z,1.40
2023-03-28T12:01:03.317Z,1.47
2023-03-28T12:03:36.712Z,1.20
2023-03-28T12:06:08.925Z,1.87
2023-03-28T12:08:43.155Z,1.60
2023-03-28T12:11:15.038Z,1.37
2023-03-28T12:13:55.338Z,1.50
2023-03-28T12:16:32.419Z,1.47
2023-03-28T12:19:02.185Z,1.60
2023-03-28T12:21:35.044Z,1.37
2023-03-28T12:24:08.471Z,1.47
2023-03-28T12:26:42.682Z,0.97
2023-03-28T12:29:18.437Z,1.17
2023-03-28T12:31:52.074Z,1.30
2023-03-28T12:34:27.291Z,1.30
2023-03-28T12:36:59.165Z,2.97
2023-03-28T12:39:35.665Z,2.50
2023-03-28T12:42:06.066Z,2.40
2023-03-28T12:44:41.528Z,3.07
2023-03-28T12:47:14.471Z,2.53
2023-03-28T12:49:44.867Z,1.80
2023-03-28T12:52:16.145Z,1.97
2023-03-28T12:55:02.096Z,1.90
2023-03-28T12:57:48.234Z,1.60
2023-03-28T13:00:23.032Z,2.00
2023-03-28T13:02:56.899Z,1.53
2023-03-28T13:05:30.683Z,1.20
2023-03-28T13:08:02.077Z,1.50
2023-03-28T13:10:34.943Z,1.53
2023-03-28T13:13:12.184Z,1.83
2023-03-28T13:15:56.104Z,1.63
2023-03-28T13:18:31.692Z,1.40
2023-03-28T13:21:02.908Z,1.63
2023-03-28T13:23:34.550Z,1.27
2023-03-28T13:26:03.818Z,1.33
2023-03-28T13:28:45.133Z,1.57
2023-03-28T13:31:24.290Z,1.33
2023-03-28T13:33:58.664Z,1.67
2023-03-28T13:36:29.307Z,1.30
2023-03-28T13:39:08.184Z,1.20
2023-03-28T13:41:57.978Z,1.53
2023-03-28T13:44:43.326Z,1.17
2023-03-28T13:47:17.691Z,1.30
2023-03-28T13:49:49.984Z,1.10
2023-03-28T13:52:54.736Z,1.10
2023-03-28T13:55:24.585Z,1.50
2023-03-28T13:57:53.021Z,1.40
2023-03-28T14:00:24.591Z,1.30
2023-03-28T14:02:53.353Z,1.47
2023-03-28T14:05:24.704Z,1.20
2023-03-28T14:07:53.895Z,1.30
2023-03-28T14:10:32.885Z,1.10
2023-03-28T14:13:03.503Z,1.43
2023-03-28T14:15:34.117Z,1.60
2023-03-28T14:18:03.168Z,1.27
2023-03-28T14:20:33.701Z,1.43
2023-03-28T14:23:01.884Z,1.23
2023-03-28T14:25:30.704Z,1.37
2023-03-28T14:27:58.785Z,1.20
2023-03-28T14:30:28.553Z,1.20
2023-03-28T14:33:02.391Z,1.20
2023-03-28T14:35:32.933Z,0.90
2023-03-28T14:38:02.823Z,1.23
2023-03-28T14:40:33.706Z,1.70
2023-03-28T14:43:04.547Z,1.60
2023-03-28T14:45:37.772Z,1.20
2023-03-28T14:48:08.782Z,1.40
2023-03-28T14:50:40.717Z,1.40
2023-03-28T14:53:12.733Z,1.77
2023-03-28T14:55:42.331Z,4.50
2023-03-28T14:58:13.100Z,3.87
2023-03-28T15:00:43.207Z,6.30
2023-03-28T15:03:16.660Z,2.83
2023-03-28T15:05:47.655Z,1.20
2023-03-28T15:08:25.573Z,3.57
2023-03-28T15:10:54.569Z,3.37
2023-03-28T15:13:27.046Z,2.40
2023-03-28T15:15:56.460Z,2.20
2023-03-28T15:18:28.631Z,1.40
2023-03-28T15:21:00.422Z,7.90
2023-03-28T15:23:30.654Z,6.77
2023-03-28T15:26:02.036Z,3.83
2023-03-28T15:28:30.112Z,1.73
2023-03-28T15:31:00.433Z,1.67
2023-03-28T15:33:29.180Z,1.70
2023-03-28T15:36:08.503Z,2.27
2023-03-28T15:38:40.033Z,1.77
2023-03-28T15:41:11.112Z,1.70
2023-03-28T15:43:41.461Z,1.60
2023-03-28T15:46:11.497Z,1.97
2023-03-28T15:48:39.947Z,1.33
2023-03-28T15:51:11.465Z,1.83
2023-03-28T15:53:41.960Z,2.13
2023-03-28T15:56:13.569Z,1.87
2023-03-28T15:58:42.693Z,2.67
2023-03-28T16:01:20.965Z,1.67
2023-03-28T16:03:49.969Z,1.70
2023-03-28T16:06:31.652Z,1.30
2023-03-28T16:09:14.636Z,1.57
2023-03-28T16:11:42.746Z,1.80
2023-03-28T16:14:12.609Z,1.33
2023-03-28T16:16:40.631Z,1.60
2023-03-28T16:19:11.654Z,1.33
2023-03-28T16:21:41.036Z,1.23
2023-03-28T16:24:09.014Z,1.57
2023-03-28T16:26:36.990Z,1.67
2023-03-28T16:29:05.034Z,1.47
2023-03-28T16:31:34.204Z,1.60
2023-03-28T16:34:02.212Z,1.40
2023-03-28T16:36:30.174Z,1.40
2023-03-28T16:38:59.515Z,1.40
2023-03-28T16:41:27.843Z,1.30
2023-03-28T16:43:55.800Z,1.67
2023-03-28T16:46:23.826Z,1.60
2023-03-28T16:48:52.284Z,1.40
2023-03-28T16:51:20.216Z,1.13
2023-03-28T16:53:48.388Z,1.30
2023-03-28T16:56:18.519Z,1.40
2023-03-28T16:58:46.448Z,1.30
2023-03-28T17:01:19.080Z,1.50
2023-03-28T17:03:47.347Z,1.63
2023-03-28T17:06:16.335Z,1.60
2023-03-28T17:08:44.569Z,1.30
2023-03-28T17:11:14.534Z,1.20
2023-03-28T17:13:44.076Z,1.50
2023-03-28T17:16:12.144Z,1.63
2023-03-28T17:18:40.093Z,1.50
2023-03-28T17:21:09.620Z,1.70
2023-03-28T17:23:39.000Z,1.60
2023-03-28T17:26:08.582Z,1.70
2023-03-28T17:28:41.980Z,1.60
2023-03-28T17:31:13.511Z,3.70
2023-03-28T17:33:41.697Z,2.57
2023-03-28T17:36:21.020Z,1.60
2023-03-28T17:38:50.303Z,1.40
2023-03-28T17:41:18.384Z,1.80
2023-03-28T17:43:46.775Z,1.60
2023-03-28T17:46:16.523Z,1.50
2023-03-28T17:48:44.851Z,1.47
2023-03-28T17:51:13.233Z,1.47
2023-03-28T17:53:42.754Z,1.43
2023-03-28T17:56:12.137Z,1.60
2023-03-28T17:58:40.130Z,2.00
2023-03-28T18:01:10.519Z,2.03
2023-03-28T18:03:40.166Z,1.93
2023-03-28T18:06:09.373Z,2.57
2023-03-28T18:08:37.584Z,2.47
2023-03-28T18:11:07.540Z,2.10
2023-03-28T18:13:36.606Z,1.97
2023-03-28T18:16:05.506Z,2.23
2023-03-28T18:18:34.062Z,3.03
2023-03-28T18:21:04.370Z,3.00
2023-03-28T18:23:32.536Z,3.33
2023-03-28T18:26:00.684Z,3.67
2023-03-28T18:28:28.803Z,3.07
2023-03-28T18:30:58.107Z,3.13
2023-03-28T18:33:26.120Z,2.27
2023-03-28T18:35:54.036Z,2.20
2023-03-28T18:38:23.394Z,2.40
2023-03-28T18:40:53.062Z,2.03
2023-03-28T18:43:21.476Z,2.10
2023-03-28T18:45:54.657Z,1.90
2023-03-28T18:48:22.844Z,1.80
2023-03-28T18:50:51.006Z,1.47
2023-03-28T18:53:18.889Z,1.87
2023-03-28T18:55:48.178Z,1.70
2023-03-28T18:58:16.213Z,1.47
2023-03-28T19:00:44.267Z,1.80
2023-03-28T19:03:17.639Z,1.70
2023-03-28T19:05:45.757Z,1.20
2023-03-28T19:08:13.683Z,2.27
2023-03-28T19:10:47.881Z,1.60
2023-03-28T19:13:16.128Z,1.80
2023-03-28T19:15:44.246Z,1.90
2023-03-28T19:18:12.258Z,1.60
2023-03-28T19:20:40.343Z,1.37
2023-03-28T19:23:08.777Z,1.53
2023-03-28T19:25:36.707Z,1.20
2023-03-28T19:28:05.970Z,1.70
2023-03-28T19:30:34.055Z,1.73
2023-03-28T19:33:02.486Z,1.67
2023-03-28T19:35:31.328Z,1.63
2023-03-28T19:37:59.347Z,1.50
2023-03-28T19:40:27.220Z,1.07
2023-03-28T19:42:56.325Z,1.57
2023-03-28T19:45:25.828Z,1.50
2023-03-28T19:47:53.816Z,1.70
2023-03-28T19:50:21.804Z,1.47
2023-03-28T19:52:50.419Z,1.77
2023-03-28T19:55:18.383Z,1.77
2023-03-28T19:57:46.335Z,1.40
2023-03-28T20:00:14.960Z,1.57
2023-03-28T20:02:44.352Z,1.87
2023-03-28T20:05:12.291Z,1.57
2023-03-28T20:07:42.710Z,1.30
2023-03-28T20:10:11.480Z,1.40
2023-03-28T20:12:41.029Z,1.67
2023-03-28T20:15:10.453Z,1.90
2023-03-28T20:17:38.519Z,1.67
2023-03-28T20:20:10.541Z,1.57
2023-03-28T20:22:38.452Z,1.50
2023-03-28T20:25:07.313Z,1.50
2023-03-28T20:27:37.286Z,1.97
2023-03-28T20:30:06.804Z,1.50
2023-03-28T20:32:35.111Z,1.80
2023-03-28T20:35:03.080Z,1.60
2023-03-28T20:37:32.433Z,1.90
2023-03-28T20:40:05.294Z,1.50
2023-03-28T20:42:34.016Z,1.83
2023-03-28T20:45:01.920Z,1.73
2023-03-28T20:47:30.394Z,1.63
2023-03-28T20:50:05.558Z,1.50
2023-03-28T20:52:38.352Z,1.27
2023-03-28T20:55:08.043Z,1.57
2023-03-28T20:57:41.286Z,1.50
2023-03-28T21:00:14.014Z,1.93
2023-03-28T21:02:42.574Z,2.00
2023-03-28T21:05:12.479Z,2.03
2023-03-28T21:07:44.024Z,1.50
2023-03-28T21:10:12.287Z,1.70
2023-03-28T21:12:40.186Z,2.37
2023-03-28T21:15:09.876Z,1.70
2023-03-28T21:17:38.000Z,1.60
2023-03-28T21:20:08.299Z,1.77
2023-03-28T21:22:36.505Z,1.90
2023-03-28T21:25:06.526Z,1.53
2023-03-28T21:27:36.880Z,1.70
2023-03-28T21:30:11.675Z,2.40
2023-03-28T21:32:39.757Z,1.30
2023-03-28T21:35:08.502Z,1.70
2023-03-28T21:37:36.595Z,1.73
2023-03-28T21:40:08.633Z,2.00
2023-03-28T21:42:36.551Z,1.67
2023-03-28T21:45:04.816Z,2.40
2023-03-28T21:47:32.734Z,1.90
2023-03-28T21:50:00.798Z,1.90
2023-03-28T21:52:28.819Z,2.00
2023-03-28T21:54:56.734Z,2.30
2023-03-28T21:57:26.377Z,2.17
2023-03-28T21:59:54.460Z,2.20
2023-03-28T22:02:22.425Z,2.30
2023-03-28T22:04:50.446Z,2.30
2023-03-28T22:07:18.374Z,1.80
2023-03-28T22:09:51.062Z,2.30
2023-03-28T22:12:22.829Z,2.70
2023-03-28T22:14:52.250Z,2.10
2023-03-28T22:17:20.172Z,2.37
2023-03-28T22:19:48.342Z,2.23
2023-03-28T22:22:17.945Z,2.47
2023-03-28T22:24:46.183Z,2.07
2023-03-28T22:27:14.194Z,2.13
2023-03-28T22:29:42.199Z,2.30
2023-03-28T22:32:11.574Z,2.33
2023-03-28T22:34:39.520Z,2.13
2023-03-28T22:37:07.395Z,2.77
2023-03-28T22:39:35.360Z,2.80
2023-03-28T22:42:03.553Z,3.00
2023-03-28T22:44:31.439Z,2.50
2023-03-28T22:47:02.286Z,2.50
2023-03-28T22:49:32.197Z,3.00
2023-03-28T22:52:01.923Z,2.30
2023-03-28T22:54:30.480Z,2.87
2023-03-28T22:56:59.003Z,2.60
2023-03-28T22:59:27.501Z,2.37
2023-03-28T23:01:56.377Z,2.50
2023-03-28T23:04:24.729Z,2.67
2023-03-28T23:06:54.109Z,2.60
2023-03-28T23:09:22.420Z,2.60
2023-03-28T23:11:50.429Z,3.00
2023-03-28T23:14:18.342Z,2.77
2023-03-28T23:16:46.287Z,2.83
2023-03-28T23:19:14.326Z,2.63
2023-03-28T23:21:42.978Z,2.40
2023-03-28T23:24:12.321Z,2.40
2023-03-28T23:26:40.244Z,2.10
2023-03-28T23:29:08.154Z,2.00
2023-03-28T23:31:36.051Z,2.27
2023-03-28T23:34:04.012Z,2.40
2023-03-28T23:36:31.951Z,2.40
2023-03-28T23:38:59.928Z,2.30
2023-03-28T23:41:29.224Z,2.60
2023-03-28T23:43:57.132Z,2.30
2023-03-28T23:46:25.113Z,2.50
2023-03-28T23:48:53.097Z,2.53
2023-03-28T23:51:21.139Z,2.60
2023-03-28T23:53:49.028Z,2.37
2023-03-28T23:56:16.917Z,2.20
2023-03-28T23:58:46.399Z,1.90
